Blue Bay — V2CE6 — position and weather

sailwx.info

Track history (hours):
 
Tides and Currents Weather Stations Pressure Air Temp Water Temp Dewpoint Dewpoint Depression Visibility Wind Speed Wind Dir Waves Ship Positions

Blue Bay

Last reported at 2017-Feb-19 08:22 UTC. Time now 2017-Feb-21 01:14 UTC.
Position N 47°11' W 004°47'.

Length 89 m; draft 5.4 m.

Type: Cargo ship. MMSI: 304519000.

Date/timePositionNaut miles runAvg speedWind from/ knotsBaromVisibWave heightAir tempDewpointWater temp
2017-Feb-19 08:22N 47°11' W 004°47'810.0
2017-Feb-19 07:33N 47°18' W 004°52'21 9.8
2017-Feb-19 05:25N 47°37' W 005°07'8 9.6
2017-Feb-19 04:33N 47°44' W 005°12'11 9.6
2017-Feb-19 03:26N 47°54' W 005°20'1110.0
2017-Feb-19 02:19N 48°04' W 005°27'810.3
2017-Feb-19 01:31N 48°11' W 005°33'43 8.7
2017-Feb-18 20:33N 48°54' W 005°44'9 8.9
2017-Feb-18 19:33N 48°58' W 005°32'9 9.1
2017-Feb-18 18:33N 49°03' W 005°20'9 9.4
2017-Feb-18 17:33N 49°08' W 005°08'3010.0
2017-Feb-18 14:33N 49°23' W 004°29'1310.1
2017-Feb-18 13:17N 49°30' W 004°12'7 9.8
2017-Feb-18 12:34N 49°34' W 004°02'10 9.4
2017-Feb-18 11:32N 49°38' W 003°49'9 9.1
2017-Feb-18 10:33N 49°43' W 003°37'9 9.1
2017-Feb-18 09:34N 49°47' W 003°25'9 9.4
2017-Feb-18 08:34N 49°52' W 003°13'1010.3
2017-Feb-18 07:33N 49°58' W 002°59'1111.1
2017-Feb-18 06:34N 50°02' W 002°44'2511.8
2017-Feb-18 04:27N 50°09' W 002°06'1010.9
2017-Feb-18 03:33N 50°11' W 001°52'10 9.8
2017-Feb-18 02:33N 50°14' W 001°37'9 8.8
2017-Feb-18 01:33N 50°17' W 001°24'8 8.0
2017-Feb-18 00:33N 50°19' W 001°12'8 7.6
2017-Feb-17 23:34N 50°21' W 001°00'9 8.7
2017-Feb-17 22:33N 50°24' W 000°47'10 9.9
2017-Feb-17 21:34N 50°26' W 000°32'1110.8
2017-Feb-17 20:34N 50°30' W 000°16'1111.2
2017-Feb-17 19:33N 50°33' E 000°01'1111.2
2017-Feb-17 18:33N 50°35' E 000°18'31 9.9
2017-Feb-17 15:23N 50°50' E 001°01'8 8.7
2017-Feb-17 14:31N 50°55' E 001°10'9 9.2
2017-Feb-17 13:33N 51°01' E 001°21'1111.2
2017-Feb-17 12:34N 51°08' E 001°35'1212.3
2017-Feb-17 11:33N 51°17' E 001°48'1211.8
2017-Feb-17 10:33N 51°27' E 001°58'1110.6
2017-Feb-17 09:33N 51°35' E 002°10'10 9.9
2017-Feb-17 08:31N 51°43' E 002°21'50 8.3
2017-Feb-17 02:31N 52°03' E 003°35'1010.2
2017-Feb-17 01:34N 52°03' E 003°51'1010.2
2017-Feb-17 00:34N 51°59' E 004°06'1111.0
2017-Feb-16 23:33N 51°54' E 004°22'3 3.1
2017-Feb-16 22:32N 51°54' E 004°27'0 0.0
2017-Feb-16 21:33N 51°54' E 004°27'0 0.0
2017-Feb-16 20:33N 51°54' E 004°27'0 0.0
2017-Feb-16 19:32N 51°54' E 004°27'0 0.0
2017-Feb-16 18:33N 51°54' E 004°27'0 0.0
2017-Feb-16 17:33N 51°54' E 004°27'0 0.0
2017-Feb-16 16:33N 51°54' E 004°27'0 0.0
2017-Feb-16 15:33N 51°54' E 004°27'0 0.1
2017-Feb-16 14:32N 51°54' E 004°27'0 0.0
2017-Feb-16 13:33N 51°54' E 004°27'0 0.0
2017-Feb-16 12:32N 51°54' E 004°27'0 0.0
2017-Feb-16 11:32N 51°54' E 004°27'0 0.0
2017-Feb-16 10:32N 51°54' E 004°27'0 0.0
2017-Feb-16 09:32N 51°54' E 004°27'0 0.0
2017-Feb-16 08:33N 51°54' E 004°27'0 0.0
2017-Feb-16 07:33N 51°54' E 004°27'0 0.0
2017-Feb-16 06:33N 51°54' E 004°27'0 0.0
2017-Feb-16 05:32N 51°54' E 004°27'0 0.0
2017-Feb-16 04:33N 51°54' E 004°27'0 0.0
2017-Feb-16 03:32N 51°54' E 004°27'0 0.0
2017-Feb-16 02:32N 51°54' E 004°27'0 0.0
2017-Feb-16 01:33N 51°54' E 004°27'0 0.0
2017-Feb-16 00:32N 51°54' E 004°27'0 0.0
2017-Feb-15 23:33N 51°54' E 004°27'0 0.0
2017-Feb-15 22:33N 51°54' E 004°27'0 0.0
2017-Feb-15 21:32N 51°54' E 004°27'0 0.0
2017-Feb-15 20:32N 51°54' E 004°27'0 0.1
2017-Feb-15 19:33N 51°54' E 004°27'0 0.0
2017-Feb-15 18:32N 51°54' E 004°27'0 0.0
2017-Feb-15 17:33N 51°54' E 004°27'0 0.0
2017-Feb-15 16:32N 51°54' E 004°27'0 0.0
2017-Feb-15 15:32N 51°54' E 004°27'0 0.0
2017-Feb-15 14:33N 51°54' E 004°27'0 0.0
2017-Feb-15 13:33N 51°54' E 004°27'0 0.0
2017-Feb-15 12:32N 51°54' E 004°27'0 0.0
2017-Feb-15 11:32N 51°54' E 004°27'0 0.0
2017-Feb-15 10:32N 51°54' E 004°27'0 0.0
2017-Feb-15 09:32N 51°54' E 004°27'0 0.0
2017-Feb-15 08:33N 51°54' E 004°27'0 0.0
2017-Feb-15 07:32N 51°54' E 004°27'0 0.0
2017-Feb-15 06:33N 51°54' E 004°27'0 0.0
2017-Feb-15 05:32N 51°54' E 004°27'0 0.0
2017-Feb-15 04:32N 51°54' E 004°27'0 0.0
2017-Feb-15 03:32N 51°54' E 004°27'0 0.0
2017-Feb-15 02:29N 51°54' E 004°27'0 0.0
2017-Feb-15 01:32N 51°54' E 004°27'0 0.0
2017-Feb-15 00:33N 51°54' E 004°27'0 0.0
2017-Feb-14 23:32N 51°54' E 004°27'0 0.0
2017-Feb-14 22:33N 51°54' E 004°27'0 0.0
2017-Feb-14 21:29N 51°54' E 004°27'0 0.0
2017-Feb-14 20:32N 51°54' E 004°27'0 0.0
2017-Feb-14 19:33N 51°54' E 004°27'0 0.0
2017-Feb-14 18:32N 51°54' E 004°27'0 0.0
2017-Feb-14 17:33N 51°54' E 004°27'0 0.0
2017-Feb-14 16:32N 51°54' E 004°27'0 0.0
2017-Feb-14 15:32N 51°54' E 004°27'0 0.0
2017-Feb-14 14:32N 51°54' E 004°27'0 0.0
2017-Feb-14 13:32N 51°54' E 004°27'1 0.7
2017-Feb-14 12:33N 51°54' E 004°26'1 1.2
2017-Feb-14 11:33N 51°54' E 004°28'0 0.0
2017-Feb-14 10:33N 51°54' E 004°28'0 0.0
2017-Feb-14 09:33N 51°54' E 004°28'0 0.0
2017-Feb-14 08:33N 51°54' E 004°28'0 0.0
2017-Feb-14 07:33N 51°54' E 004°28'0 0.0
2017-Feb-14 06:33N 51°54' E 004°28'0 0.0
2017-Feb-14 05:33N 51°54' E 004°28'0 0.0
2017-Feb-14 04:33N 51°54' E 004°28'0 0.0
2017-Feb-14 03:33N 51°54' E 004°28'0 0.0
2017-Feb-14 02:33N 51°54' E 004°28'0 0.0
2017-Feb-14 01:33N 51°54' E 004°28'0 0.0
2017-Feb-14 00:33N 51°54' E 004°28'0 0.0
2017-Feb-13 23:33N 51°54' E 004°28'0 0.0
2017-Feb-13 22:33N 51°54' E 004°28'0 0.0
2017-Feb-13 21:33N 51°54' E 004°28'0 0.0
2017-Feb-13 20:33N 51°54' E 004°28'0 0.0
2017-Feb-13 19:33N 51°54' E 004°28'0 0.0
2017-Feb-13 18:30N 51°54' E 004°28'0 0.0
2017-Feb-13 17:33N 51°54' E 004°28'0 0.0
2017-Feb-13 16:33N 51°54' E 004°28'0 0.0
2017-Feb-13 15:33N 51°54' E 004°28'0 0.0
2017-Feb-13 14:33N 51°54' E 004°28'0 0.0
2017-Feb-13 13:33N 51°54' E 004°28'0 0.0
2017-Feb-13 12:33N 51°54' E 004°28'0 0.0
2017-Feb-13 11:33N 51°54' E 004°28'0 0.0
2017-Feb-13 10:33N 51°54' E 004°28'0 0.0
2017-Feb-13 09:33N 51°54' E 004°28'0 0.0
2017-Feb-13 08:33N 51°54' E 004°28'0 0.0
2017-Feb-13 07:30N 51°54' E 004°28'0 0.0
2017-Feb-13 06:30N 51°54' E 004°28'0 0.0
2017-Feb-13 05:33N 51°54' E 004°28'0 0.0
2017-Feb-13 04:33N 51°54' E 004°28'0 0.0
2017-Feb-13 03:33N 51°54' E 004°28'0 0.0
2017-Feb-13 02:33N 51°54' E 004°28'0 0.0
2017-Feb-13 01:33N 51°54' E 004°28'0 0.0
2017-Feb-13 00:30N 51°54' E 004°28'0 0.0
2017-Feb-12 23:33N 51°54' E 004°28'0 0.0
2017-Feb-12 22:33N 51°54' E 004°28'0 0.0
2017-Feb-12 21:33N 51°54' E 004°28'0 0.0
2017-Feb-12 20:33N 51°54' E 004°28'0 0.0
2017-Feb-12 19:33N 51°54' E 004°28'0 0.0
2017-Feb-12 18:33N 51°54' E 004°28'0 0.0
2017-Feb-12 17:33N 51°54' E 004°28'0 0.0
2017-Feb-12 16:33N 51°54' E 004°28'0 0.0
2017-Feb-12 15:33N 51°54' E 004°28'0 0.0
2017-Feb-12 14:33N 51°54' E 004°28'0 0.0
2017-Feb-12 13:33N 51°54' E 004°28'0 0.0
2017-Feb-12 12:33N 51°54' E 004°28'0 0.0
2017-Feb-12 11:33N 51°54' E 004°28'0 0.0
2017-Feb-12 10:30N 51°54' E 004°28'0 0.0
2017-Feb-12 09:33N 51°54' E 004°28'0 0.0
2017-Feb-12 08:33N 51°54' E 004°28'0 0.0
2017-Feb-12 07:33N 51°54' E 004°28'0 0.0
2017-Feb-12 06:33N 51°54' E 004°28'0 0.0
2017-Feb-12 05:33N 51°54' E 004°28'0 0.0
2017-Feb-12 04:33N 51°54' E 004°28'0 0.0
2017-Feb-12 03:33N 51°54' E 004°28'0 0.0
2017-Feb-12 02:33N 51°54' E 004°28'0 0.0
2017-Feb-12 01:30N 51°54' E 004°28'0 0.0
2017-Feb-12 00:33N 51°54' E 004°28'0 0.0
2017-Feb-11 23:33N 51°54' E 004°28'0 0.0
2017-Feb-11 22:33N 51°54' E 004°28'0 0.0
2017-Feb-11 21:33N 51°54' E 004°28'0 0.0
2017-Feb-11 20:33N 51°54' E 004°28'0 0.0
2017-Feb-11 19:33N 51°54' E 004°28'0 0.0
2017-Feb-11 18:33N 51°54' E 004°28'0 0.0
2017-Feb-11 17:33N 51°54' E 004°28'1 1.2
2017-Feb-11 16:33N 51°54' E 004°26'3 3.0
2017-Feb-11 15:33N 51°54' E 004°21'0 0.0
2017-Feb-11 14:33N 51°54' E 004°21'0 0.0
2017-Feb-11 13:33N 51°54' E 004°21'0 0.0
2017-Feb-11 12:33N 51°54' E 004°21'0 0.0
2017-Feb-11 11:33N 51°54' E 004°21'0 0.0
2017-Feb-11 10:27N 51°54' E 004°21'0 0.0
2017-Feb-11 09:33N 51°54' E 004°21'0 0.0
2017-Feb-11 08:33N 51°54' E 004°21'0 0.0
2017-Feb-11 07:33N 51°54' E 004°21'0 0.0
2017-Feb-11 06:33N 51°54' E 004°21'0 0.0
2017-Feb-11 05:30N 51°54' E 004°21'0 0.0
2017-Feb-11 04:33N 51°54' E 004°21'0 0.0
2017-Feb-11 03:33N 51°54' E 004°21'0 0.0
2017-Feb-11 02:33N 51°54' E 004°21'0 0.0
2017-Feb-11 01:33N 51°54' E 004°21'0 0.0
2017-Feb-11 00:33N 51°54' E 004°21'0 0.0
2017-Feb-10 23:33N 51°54' E 004°21'0 0.0
2017-Feb-10 22:33N 51°54' E 004°21'0 0.0
2017-Feb-10 21:33N 51°54' E 004°21'0 0.0
2017-Feb-10 20:30N 51°54' E 004°21'0 0.0
2017-Feb-10 19:33N 51°54' E 004°21'0 0.0
2017-Feb-10 18:33N 51°54' E 004°21'0 0.0
2017-Feb-10 17:33N 51°54' E 004°21'0 0.0
2017-Feb-10 16:33N 51°54' E 004°21'0 0.0
2017-Feb-10 15:30N 51°54' E 004°21'0 0.0
2017-Feb-10 14:33N 51°54' E 004°21'0 0.0
2017-Feb-10 13:33N 51°54' E 004°21'0 0.0
2017-Feb-10 12:33N 51°54' E 004°21'0 0.0
2017-Feb-10 11:33N 51°54' E 004°21'0 0.0
2017-Feb-10 10:33N 51°54' E 004°21'0 0.0
2017-Feb-10 09:33N 51°54' E 004°21'3 3.3
2017-Feb-10 08:33N 51°54' E 004°16'8 7.5
2017-Feb-10 07:33N 51°59' E 004°06'7 7.3
2017-Feb-10 06:33N 52°01' E 003°55'8 7.8
2017-Feb-10 05:33N 52°03' E 003°43'9 6.7
2017-Feb-10 04:11N 52°07' E 003°29'3 4.2
2017-Feb-10 03:32N 52°09' E 003°25'66 8.3
2017-Feb-09 19:33N 52°35' E 001°45'1 0.5
2017-Feb-09 18:31N 52°35' E 001°44'0 0.0
2017-Feb-09 17:31N 52°35' E 001°44'0 0.0
2017-Feb-09 16:31N 52°35' E 001°44'0 0.0
2017-Feb-09 15:31N 52°35' E 001°44'0 0.0
2017-Feb-09 14:28N 52°35' E 001°44'0 0.0
2017-Feb-09 13:31N 52°35' E 001°44'0 0.0
2017-Feb-09 12:31N 52°35' E 001°44'0 0.0
2017-Feb-09 11:31N 52°35' E 001°44'0 0.0
2017-Feb-09 10:31N 52°35' E 001°44'0 0.0
2017-Feb-09 09:31N 52°35' E 001°44'0 0.0
2017-Feb-09 08:31N 52°35' E 001°44'  
Track history (hours):
 
Tides and Currents Weather Stations Pressure Air Temp Water Temp Dewpoint Dewpoint Depression Visibility Wind Speed Wind Dir Waves Ship Positions

Blue Bay

Last reported at 2017-Feb-19 08:22 UTC. Time now 2017-Feb-21 01:14 UTC.
Position N 47°11' W 004°47'.

Length 89 m; draft 5.4 m.

Type: Cargo ship. MMSI: 304519000.

Date/timePositionNaut miles runAvg speedWind from/ knotsBaromVisibWave heightAir tempDewpointWater temp
2017-Feb-19 08:22N 47°11' W 004°47'810.0
2017-Feb-19 07:33N 47°18' W 004°52'21 9.8
2017-Feb-19 05:25N 47°37' W 005°07'8 9.6
2017-Feb-19 04:33N 47°44' W 005°12'11 9.6
2017-Feb-19 03:26N 47°54' W 005°20'1110.0
2017-Feb-19 02:19N 48°04' W 005°27'810.3
2017-Feb-19 01:31N 48°11' W 005°33'43 8.7
2017-Feb-18 20:33N 48°54' W 005°44'9 8.9
2017-Feb-18 19:33N 48°58' W 005°32'9 9.1
2017-Feb-18 18:33N 49°03' W 005°20'9 9.4
2017-Feb-18 17:33N 49°08' W 005°08'3010.0
2017-Feb-18 14:33N 49°23' W 004°29'1310.1
2017-Feb-18 13:17N 49°30' W 004°12'7 9.8
2017-Feb-18 12:34N 49°34' W 004°02'10 9.4
2017-Feb-18 11:32N 49°38' W 003°49'9 9.1
2017-Feb-18 10:33N 49°43' W 003°37'9 9.1
2017-Feb-18 09:34N 49°47' W 003°25'9 9.4
2017-Feb-18 08:34N 49°52' W 003°13'1010.3
2017-Feb-18 07:33N 49°58' W 002°59'1111.1
2017-Feb-18 06:34N 50°02' W 002°44'2511.8
2017-Feb-18 04:27N 50°09' W 002°06'1010.9
2017-Feb-18 03:33N 50°11' W 001°52'10 9.8
2017-Feb-18 02:33N 50°14' W 001°37'9 8.8
2017-Feb-18 01:33N 50°17' W 001°24'8 8.0
2017-Feb-18 00:33N 50°19' W 001°12'8 7.6
2017-Feb-17 23:34N 50°21' W 001°00'9 8.7
2017-Feb-17 22:33N 50°24' W 000°47'10 9.9
2017-Feb-17 21:34N 50°26' W 000°32'1110.8
2017-Feb-17 20:34N 50°30' W 000°16'1111.2
2017-Feb-17 19:33N 50°33' E 000°01'1111.2
2017-Feb-17 18:33N 50°35' E 000°18'31 9.9
2017-Feb-17 15:23N 50°50' E 001°01'8 8.7
2017-Feb-17 14:31N 50°55' E 001°10'9 9.2
2017-Feb-17 13:33N 51°01' E 001°21'1111.2
2017-Feb-17 12:34N 51°08' E 001°35'1212.3
2017-Feb-17 11:33N 51°17' E 001°48'1211.8
2017-Feb-17 10:33N 51°27' E 001°58'1110.6
2017-Feb-17 09:33N 51°35' E 002°10'10 9.9
2017-Feb-17 08:31N 51°43' E 002°21'50 8.3
2017-Feb-17 02:31N 52°03' E 003°35'1010.2
2017-Feb-17 01:34N 52°03' E 003°51'1010.2
2017-Feb-17 00:34N 51°59' E 004°06'1111.0
2017-Feb-16 23:33N 51°54' E 004°22'3 3.1
2017-Feb-16 22:32N 51°54' E 004°27'0 0.0
2017-Feb-16 21:33N 51°54' E 004°27'0 0.0
2017-Feb-16 20:33N 51°54' E 004°27'0 0.0
2017-Feb-16 19:32N 51°54' E 004°27'0 0.0
2017-Feb-16 18:33N 51°54' E 004°27'0 0.0
2017-Feb-16 17:33N 51°54' E 004°27'0 0.0
2017-Feb-16 16:33N 51°54' E 004°27'0 0.0
2017-Feb-16 15:33N 51°54' E 004°27'0 0.1
2017-Feb-16 14:32N 51°54' E 004°27'0 0.0
2017-Feb-16 13:33N 51°54' E 004°27'0 0.0
2017-Feb-16 12:32N 51°54' E 004°27'0 0.0
2017-Feb-16 11:32N 51°54' E 004°27'0 0.0
2017-Feb-16 10:32N 51°54' E 004°27'0 0.0
2017-Feb-16 09:32N 51°54' E 004°27'0 0.0
2017-Feb-16 08:33N 51°54' E 004°27'0 0.0
2017-Feb-16 07:33N 51°54' E 004°27'0 0.0
2017-Feb-16 06:33N 51°54' E 004°27'0 0.0
2017-Feb-16 05:32N 51°54' E 004°27'0 0.0
2017-Feb-16 04:33N 51°54' E 004°27'0 0.0
2017-Feb-16 03:32N 51°54' E 004°27'0 0.0
2017-Feb-16 02:32N 51°54' E 004°27'0 0.0
2017-Feb-16 01:33N 51°54' E 004°27'0 0.0
2017-Feb-16 00:32N 51°54' E 004°27'0 0.0
2017-Feb-15 23:33N 51°54' E 004°27'0 0.0
2017-Feb-15 22:33N 51°54' E 004°27'0 0.0
2017-Feb-15 21:32N 51°54' E 004°27'0 0.0
2017-Feb-15 20:32N 51°54' E 004°27'0 0.1
2017-Feb-15 19:33N 51°54' E 004°27'0 0.0
2017-Feb-15 18:32N 51°54' E 004°27'0 0.0
2017-Feb-15 17:33N 51°54' E 004°27'0 0.0
2017-Feb-15 16:32N 51°54' E 004°27'0 0.0
2017-Feb-15 15:32N 51°54' E 004°27'0 0.0
2017-Feb-15 14:33N 51°54' E 004°27'0 0.0
2017-Feb-15 13:33N 51°54' E 004°27'0 0.0
2017-Feb-15 12:32N 51°54' E 004°27'0 0.0
2017-Feb-15 11:32N 51°54' E 004°27'0 0.0
2017-Feb-15 10:32N 51°54' E 004°27'0 0.0
2017-Feb-15 09:32N 51°54' E 004°27'0 0.0
2017-Feb-15 08:33N 51°54' E 004°27'0 0.0
2017-Feb-15 07:32N 51°54' E 004°27'0 0.0
2017-Feb-15 06:33N 51°54' E 004°27'0 0.0
2017-Feb-15 05:32N 51°54' E 004°27'0 0.0
2017-Feb-15 04:32N 51°54' E 004°27'0 0.0
2017-Feb-15 03:32N 51°54' E 004°27'0 0.0
2017-Feb-15 02:29N 51°54' E 004°27'0 0.0
2017-Feb-15 01:32N 51°54' E 004°27'0 0.0
2017-Feb-15 00:33N 51°54' E 004°27'0 0.0
2017-Feb-14 23:32N 51°54' E 004°27'0 0.0
2017-Feb-14 22:33N 51°54' E 004°27'0 0.0
2017-Feb-14 21:29N 51°54' E 004°27'0 0.0
2017-Feb-14 20:32N 51°54' E 004°27'0 0.0
2017-Feb-14 19:33N 51°54' E 004°27'0 0.0
2017-Feb-14 18:32N 51°54' E 004°27'0 0.0
2017-Feb-14 17:33N 51°54' E 004°27'0 0.0
2017-Feb-14 16:32N 51°54' E 004°27'0 0.0
2017-Feb-14 15:32N 51°54' E 004°27'0 0.0
2017-Feb-14 14:32N 51°54' E 004°27'0 0.0
2017-Feb-14 13:32N 51°54' E 004°27'1 0.7
2017-Feb-14 12:33N 51°54' E 004°26'1 1.2
2017-Feb-14 11:33N 51°54' E 004°28'0 0.0
2017-Feb-14 10:33N 51°54' E 004°28'0 0.0
2017-Feb-14 09:33N 51°54' E 004°28'0 0.0
2017-Feb-14 08:33N 51°54' E 004°28'0 0.0
2017-Feb-14 07:33N 51°54' E 004°28'0 0.0
2017-Feb-14 06:33N 51°54' E 004°28'0 0.0
2017-Feb-14 05:33N 51°54' E 004°28'0 0.0
2017-Feb-14 04:33N 51°54' E 004°28'0 0.0
2017-Feb-14 03:33N 51°54' E 004°28'0 0.0
2017-Feb-14 02:33N 51°54' E 004°28'0 0.0
2017-Feb-14 01:33N 51°54' E 004°28'0 0.0
2017-Feb-14 00:33N 51°54' E 004°28'0 0.0
2017-Feb-13 23:33N 51°54' E 004°28'0 0.0
2017-Feb-13 22:33N 51°54' E 004°28'0 0.0
2017-Feb-13 21:33N 51°54' E 004°28'0 0.0
2017-Feb-13 20:33N 51°54' E 004°28'0 0.0
2017-Feb-13 19:33N 51°54' E 004°28'0 0.0
2017-Feb-13 18:30N 51°54' E 004°28'0 0.0
2017-Feb-13 17:33N 51°54' E 004°28'0 0.0
2017-Feb-13 16:33N 51°54' E 004°28'0 0.0
2017-Feb-13 15:33N 51°54' E 004°28'0 0.0
2017-Feb-13 14:33N 51°54' E 004°28'0 0.0
2017-Feb-13 13:33N 51°54' E 004°28'0 0.0
2017-Feb-13 12:33N 51°54' E 004°28'0 0.0
2017-Feb-13 11:33N 51°54' E 004°28'0 0.0
2017-Feb-13 10:33N 51°54' E 004°28'0 0.0
2017-Feb-13 09:33N 51°54' E 004°28'0 0.0
2017-Feb-13 08:33N 51°54' E 004°28'0 0.0
2017-Feb-13 07:30N 51°54' E 004°28'0 0.0
2017-Feb-13 06:30N 51°54' E 004°28'0 0.0
2017-Feb-13 05:33N 51°54' E 004°28'0 0.0
2017-Feb-13 04:33N 51°54' E 004°28'0 0.0
2017-Feb-13 03:33N 51°54' E 004°28'0 0.0
2017-Feb-13 02:33N 51°54' E 004°28'0 0.0
2017-Feb-13 01:33N 51°54' E 004°28'0 0.0
2017-Feb-13 00:30N 51°54' E 004°28'0 0.0
2017-Feb-12 23:33N 51°54' E 004°28'0 0.0
2017-Feb-12 22:33N 51°54' E 004°28'0 0.0
2017-Feb-12 21:33N 51°54' E 004°28'0 0.0
2017-Feb-12 20:33N 51°54' E 004°28'0 0.0
2017-Feb-12 19:33N 51°54' E 004°28'0 0.0
2017-Feb-12 18:33N 51°54' E 004°28'0 0.0
2017-Feb-12 17:33N 51°54' E 004°28'0 0.0
2017-Feb-12 16:33N 51°54' E 004°28'0 0.0
2017-Feb-12 15:33N 51°54' E 004°28'0 0.0
2017-Feb-12 14:33N 51°54' E 004°28'0 0.0
2017-Feb-12 13:33N 51°54' E 004°28'0 0.0
2017-Feb-12 12:33N 51°54' E 004°28'0 0.0
2017-Feb-12 11:33N 51°54' E 004°28'0 0.0
2017-Feb-12 10:30N 51°54' E 004°28'0 0.0
2017-Feb-12 09:33N 51°54' E 004°28'0 0.0
2017-Feb-12 08:33N 51°54' E 004°28'0 0.0
2017-Feb-12 07:33N 51°54' E 004°28'0 0.0
2017-Feb-12 06:33N 51°54' E 004°28'0 0.0
2017-Feb-12 05:33N 51°54' E 004°28'0 0.0
2017-Feb-12 04:33N 51°54' E 004°28'0 0.0
2017-Feb-12 03:33N 51°54' E 004°28'0 0.0
2017-Feb-12 02:33N 51°54' E 004°28'0 0.0
2017-Feb-12 01:30N 51°54' E 004°28'0 0.0
2017-Feb-12 00:33N 51°54' E 004°28'0 0.0
2017-Feb-11 23:33N 51°54' E 004°28'0 0.0
2017-Feb-11 22:33N 51°54' E 004°28'0 0.0
2017-Feb-11 21:33N 51°54' E 004°28'0 0.0
2017-Feb-11 20:33N 51°54' E 004°28'0 0.0
2017-Feb-11 19:33N 51°54' E 004°28'0 0.0
2017-Feb-11 18:33N 51°54' E 004°28'0 0.0
2017-Feb-11 17:33N 51°54' E 004°28'1 1.2
2017-Feb-11 16:33N 51°54' E 004°26'3 3.0
2017-Feb-11 15:33N 51°54' E 004°21'0 0.0
2017-Feb-11 14:33N 51°54' E 004°21'0 0.0
2017-Feb-11 13:33N 51°54' E 004°21'0 0.0
2017-Feb-11 12:33N 51°54' E 004°21'0 0.0
2017-Feb-11 11:33N 51°54' E 004°21'0 0.0
2017-Feb-11 10:27N 51°54' E 004°21'0 0.0
2017-Feb-11 09:33N 51°54' E 004°21'0 0.0
2017-Feb-11 08:33N 51°54' E 004°21'0 0.0
2017-Feb-11 07:33N 51°54' E 004°21'0 0.0
2017-Feb-11 06:33N 51°54' E 004°21'0 0.0
2017-Feb-11 05:30N 51°54' E 004°21'0 0.0
2017-Feb-11 04:33N 51°54' E 004°21'0 0.0
2017-Feb-11 03:33N 51°54' E 004°21'0 0.0
2017-Feb-11 02:33N 51°54' E 004°21'0 0.0
2017-Feb-11 01:33N 51°54' E 004°21'0 0.0
2017-Feb-11 00:33N 51°54' E 004°21'0 0.0
2017-Feb-10 23:33N 51°54' E 004°21'0 0.0
2017-Feb-10 22:33N 51°54' E 004°21'0 0.0
2017-Feb-10 21:33N 51°54' E 004°21'0 0.0
2017-Feb-10 20:30N 51°54' E 004°21'0 0.0
2017-Feb-10 19:33N 51°54' E 004°21'0 0.0
2017-Feb-10 18:33N 51°54' E 004°21'0 0.0
2017-Feb-10 17:33N 51°54' E 004°21'0 0.0
2017-Feb-10 16:33N 51°54' E 004°21'0 0.0
2017-Feb-10 15:30N 51°54' E 004°21'0 0.0
2017-Feb-10 14:33N 51°54' E 004°21'0 0.0
2017-Feb-10 13:33N 51°54' E 004°21'0 0.0
2017-Feb-10 12:33N 51°54' E 004°21'0 0.0
2017-Feb-10 11:33N 51°54' E 004°21'0 0.0
2017-Feb-10 10:33N 51°54' E 004°21'0 0.0
2017-Feb-10 09:33N 51°54' E 004°21'3 3.3
2017-Feb-10 08:33N 51°54' E 004°16'8 7.5
2017-Feb-10 07:33N 51°59' E 004°06'7 7.3
2017-Feb-10 06:33N 52°01' E 003°55'8 7.8
2017-Feb-10 05:33N 52°03' E 003°43'9 6.7
2017-Feb-10 04:11N 52°07' E 003°29'3 4.2
2017-Feb-10 03:32N 52°09' E 003°25'66 8.3
2017-Feb-09 19:33N 52°35' E 001°45'1 0.5
2017-Feb-09 18:31N 52°35' E 001°44'0 0.0
2017-Feb-09 17:31N 52°35' E 001°44'0 0.0
2017-Feb-09 16:31N 52°35' E 001°44'0 0.0
2017-Feb-09 15:31N 52°35' E 001°44'0 0.0
2017-Feb-09 14:28N 52°35' E 001°44'0 0.0
2017-Feb-09 13:31N 52°35' E 001°44'0 0.0
2017-Feb-09 12:31N 52°35' E 001°44'0 0.0
2017-Feb-09 11:31N 52°35' E 001°44'0 0.0
2017-Feb-09 10:31N 52°35' E 001°44'0 0.0
2017-Feb-09 09:31N 52°35' E 001°44'0 0.0
2017-Feb-09 08:31N 52°35' E 001°44'  

Dump ship's entire track history